createdAt,value
2022-10-16T00:01:40.675Z,9.11
2022-10-16T00:04:07.602Z,8.99
2022-10-16T00:06:34.398Z,8.44
2022-10-16T00:09:01.241Z,9.24
2022-10-16T00:11:34.280Z,9.23
2022-10-16T00:14:02.860Z,9.20
2022-10-16T00:16:30.431Z,8.87
2022-10-16T00:18:58.033Z,8.80
2022-10-16T00:21:27.280Z,9.05
2022-10-16T00:24:13.018Z,7.69
2022-10-16T00:26:41.085Z,8.14
2022-10-16T00:29:08.161Z,8.67
2022-10-16T00:31:35.084Z,8.86
2022-10-16T00:34:02.481Z,8.83
2022-10-16T00:36:29.592Z,8.50
2022-10-16T00:41:34.306Z,8.58
2022-10-16T00:44:04.163Z,7.59
2022-10-16T00:46:38.233Z,8.56
2022-10-16T00:49:14.083Z,8.30
2022-10-16T00:51:42.340Z,8.00
2022-10-16T00:54:14.311Z,8.51
2022-10-16T00:56:42.257Z,8.55
2022-10-16T00:59:20.350Z,8.52
2022-10-16T01:01:47.554Z,7.67
2022-10-16T01:04:14.681Z,8.51
2022-10-16T01:07:00.070Z,7.18
2022-10-16T01:09:38.109Z,7.31
2022-10-16T01:12:10.914Z,8.50
2022-10-16T01:14:46.885Z,7.22
2022-10-16T01:17:22.335Z,8.47
2022-10-16T01:20:15.124Z,7.39
2022-10-16T01:22:57.095Z,7.70
2022-10-16T01:25:40.708Z,8.11
2022-10-16T01:28:13.099Z,7.10
2022-10-16T01:30:43.018Z,8.02
2022-10-16T01:33:19.223Z,7.03
2022-10-16T01:35:53.361Z,8.27
2022-10-16T01:38:41.419Z,8.25
2022-10-16T01:41:39.121Z,7.17
2022-10-16T01:44:11.068Z,7.42
2022-10-16T01:46:40.340Z,8.27
2022-10-16T01:49:09.142Z,6.95
2022-10-16T01:51:38.105Z,7.08
2022-10-16T01:54:09.019Z,8.26
2022-10-16T01:56:37.833Z,8.31
2022-10-16T01:59:12.540Z,8.00
2022-10-16T02:01:43.522Z,8.35
2022-10-16T02:04:17.521Z,7.80
2022-10-16T02:06:44.527Z,6.94
2022-10-16T02:09:11.923Z,8.31
2022-10-16T02:11:38.840Z,7.16
2022-10-16T02:14:07.389Z,8.19
2022-10-16T02:16:43.132Z,7.03
2022-10-16T02:19:14.183Z,7.94
2022-10-16T02:21:45.941Z,7.87
2022-10-16T02:24:41.579Z,8.24
2022-10-16T02:27:19.164Z,7.35
2022-10-16T02:29:59.710Z,6.83
2022-10-16T02:32:31.863Z,7.25
2022-10-16T02:35:00.710Z,7.83
2022-10-16T02:37:29.031Z,6.70
2022-10-16T02:39:58.999Z,7.70
2022-10-16T02:42:31.031Z,7.13
2022-10-16T02:44:57.755Z,7.93
2022-10-16T02:47:24.669Z,7.65
2022-10-16T02:49:51.517Z,7.56
2022-10-16T02:52:18.465Z,7.00
2022-10-16T02:54:45.269Z,6.65
2022-10-16T02:57:12.755Z,7.52
2022-10-16T02:59:39.747Z,7.24
2022-10-16T03:02:06.676Z,6.71
2022-10-16T03:04:33.585Z,7.67
2022-10-16T03:07:00.402Z,6.63
2022-10-16T03:09:27.282Z,6.34
2022-10-16T03:11:54.149Z,6.61
2022-10-16T03:14:21.081Z,7.64
2022-10-16T03:16:48.051Z,7.57
2022-10-16T03:19:14.872Z,6.91
2022-10-16T03:21:41.734Z,7.55
2022-10-16T03:24:08.595Z,6.80
2022-10-16T03:26:35.510Z,7.41
2022-10-16T03:29:04.287Z,7.57
2022-10-16T03:31:31.581Z,7.50
2022-10-16T03:33:58.436Z,5.90
2022-10-16T03:36:25.406Z,7.29
2022-10-16T03:38:52.175Z,5.81
2022-10-16T03:41:19.130Z,6.24
2022-10-16T03:43:45.988Z,6.08
2022-10-16T03:46:12.788Z,7.28
2022-10-16T03:48:40.892Z,6.17
2022-10-16T03:51:07.755Z,7.03
2022-10-16T03:53:35.620Z,6.07
2022-10-16T03:56:02.510Z,7.20
2022-10-16T03:58:29.548Z,6.61
2022-10-16T04:00:56.364Z,7.05
2022-10-16T04:03:23.992Z,7.23
2022-10-16T04:05:51.563Z,6.13
2022-10-16T04:08:19.238Z,7.22
2022-10-16T04:10:46.403Z,7.18
2022-10-16T04:13:13.823Z,6.42
2022-10-16T04:15:40.773Z,7.08
2022-10-16T04:18:07.963Z,7.06
2022-10-16T04:20:35.406Z,5.76
2022-10-16T04:23:02.271Z,6.81
2022-10-16T04:25:29.114Z,6.37
2022-10-16T04:27:56.604Z,7.01
2022-10-16T04:30:24.325Z,5.70
2022-10-16T04:32:52.507Z,6.55
2022-10-16T04:35:21.700Z,6.91
2022-10-16T04:37:49.117Z,6.96
2022-10-16T04:40:16.981Z,5.85
2022-10-16T04:42:44.138Z,5.86
2022-10-16T04:45:13.483Z,7.19
2022-10-16T04:47:43.349Z,5.88
2022-10-16T04:50:10.227Z,7.23
2022-10-16T04:52:37.834Z,6.01
2022-10-16T04:55:05.152Z,7.25
2022-10-16T04:57:32.303Z,6.16
2022-10-16T04:59:59.103Z,6.73
2022-10-16T05:02:26.162Z,6.62
2022-10-16T05:04:53.132Z,6.38
2022-10-16T05:07:19.937Z,7.12
2022-10-16T05:09:46.785Z,7.12
2022-10-16T05:12:13.667Z,7.14
2022-10-16T05:14:40.578Z,5.79
2022-10-16T05:17:07.518Z,7.04
2022-10-16T05:19:34.790Z,6.06
2022-10-16T05:22:02.144Z,7.05
2022-10-16T05:24:28.997Z,7.03
2022-10-16T05:26:56.076Z,6.58
2022-10-16T05:29:23.840Z,5.78
2022-10-16T05:31:53.043Z,6.44
2022-10-16T05:34:21.585Z,6.28
2022-10-16T05:36:48.721Z,7.06
2022-10-16T05:39:17.176Z,7.13
2022-10-16T05:41:44.855Z,6.52
2022-10-16T05:44:13.058Z,7.25
2022-10-16T05:46:40.564Z,7.01
2022-10-16T05:49:07.500Z,7.33
2022-10-16T05:51:35.628Z,7.44
2022-10-16T05:54:02.630Z,6.90
2022-10-16T05:56:30.162Z,7.24
2022-10-16T05:58:57.391Z,7.72
2022-10-16T06:01:25.470Z,7.97
2022-10-16T06:03:53.427Z,7.39
2022-10-16T06:06:29.575Z,8.42
2022-10-16T06:08:57.704Z,7.41
2022-10-16T06:11:29.153Z,8.81
2022-10-16T06:13:58.909Z,8.98
2022-10-16T06:16:27.272Z,9.45
2022-10-16T06:18:56.896Z,9.67
2022-10-16T06:21:26.681Z,9.77
2022-10-16T06:23:55.397Z,9.58
2022-10-16T06:26:25.163Z,10.11
2022-10-16T06:28:52.846Z,10.22
2022-10-16T06:31:20.050Z,10.37
2022-10-16T06:33:51.554Z,9.43
2022-10-16T06:36:19.184Z,10.02
2022-10-16T06:38:46.540Z,10.33
2022-10-16T06:41:18.970Z,10.54
2022-10-16T06:43:46.478Z,10.68
2022-10-16T06:46:15.620Z,10.12
2022-10-16T06:48:43.600Z,10.97
2022-10-16T06:51:13.080Z,11.05
2022-10-16T06:54:01.922Z,10.86
2022-10-16T06:56:32.303Z,10.49
2022-10-16T06:59:00.127Z,11.17
2022-10-16T07:01:27.588Z,10.88
2022-10-16T07:03:54.898Z,9.97
2022-10-16T07:06:24.183Z,10.98
2022-10-16T07:08:51.981Z,11.34
2022-10-16T07:11:22.068Z,10.69
2022-10-16T07:13:54.989Z,11.54
2022-10-16T07:16:26.925Z,10.36
2022-10-16T07:18:59.625Z,11.34
2022-10-16T07:21:30.596Z,10.99
2022-10-16T07:23:59.866Z,11.60
2022-10-16T07:26:29.366Z,11.57
2022-10-16T07:28:58.223Z,11.12
2022-10-16T07:31:26.623Z,11.64
2022-10-16T07:33:55.841Z,11.22
2022-10-16T07:36:24.569Z,11.82
2022-10-16T07:38:54.190Z,11.25
2022-10-16T07:41:24.419Z,11.49
2022-10-16T07:43:53.545Z,11.97
2022-10-16T07:46:22.740Z,12.02
2022-10-16T07:48:50.089Z,10.80
2022-10-16T07:51:25.411Z,11.36
2022-10-16T07:53:53.809Z,11.80
2022-10-16T07:56:22.017Z,12.21
2022-10-16T07:58:51.289Z,11.78
2022-10-16T08:01:19.321Z,12.40
2022-10-16T08:03:52.450Z,12.50
2022-10-16T08:06:25.213Z,12.41
2022-10-16T08:08:56.892Z,11.72
2022-10-16T08:11:24.541Z,11.61
2022-10-16T08:13:54.658Z,12.85
2022-10-16T08:16:23.215Z,12.92
2022-10-16T08:18:52.324Z,11.74
2022-10-16T08:21:24.404Z,12.98
2022-10-16T08:23:55.054Z,11.91
2022-10-16T08:26:26.189Z,12.40
2022-10-16T08:28:53.491Z,12.83
2022-10-16T08:31:21.772Z,13.30
2022-10-16T08:33:49.008Z,13.42
2022-10-16T08:36:17.661Z,13.15
2022-10-16T08:38:44.843Z,10.72
2022-10-16T08:41:21.101Z,12.52
2022-10-16T08:44:20.151Z,13.67
2022-10-16T08:46:53.147Z,12.82
2022-10-16T08:49:20.333Z,12.75
2022-10-16T08:51:49.806Z,13.56
2022-10-16T08:54:41.811Z,14.06
2022-10-16T08:57:23.121Z,13.74
2022-10-16T08:59:52.265Z,14.27
2022-10-16T09:02:25.870Z,14.37
2022-10-16T09:05:19.724Z,13.99
2022-10-16T09:07:52.398Z,14.27
2022-10-16T09:10:37.911Z,14.60
2022-10-16T09:13:13.778Z,13.51
2022-10-16T09:15:45.030Z,14.00
2022-10-16T09:18:39.367Z,14.82
2022-10-16T09:21:20.849Z,14.85
2022-10-16T09:23:49.216Z,14.88
2022-10-16T09:26:17.965Z,14.89
2022-10-16T09:28:46.119Z,15.05
2022-10-16T09:31:22.338Z,14.75
2022-10-16T09:33:56.250Z,15.13
2022-10-16T09:36:26.323Z,15.00
2022-10-16T09:39:07.050Z,14.25
2022-10-16T09:41:38.459Z,14.10
2022-10-16T09:44:17.568Z,14.68
2022-10-16T09:46:44.555Z,15.32
2022-10-16T09:49:26.338Z,14.24
2022-10-16T09:52:04.624Z,15.40
2022-10-16T09:54:31.499Z,15.45
2022-10-16T09:57:08.749Z,15.40
2022-10-16T09:59:47.956Z,14.74
2022-10-16T10:02:16.909Z,14.77
2022-10-16T10:04:50.920Z,14.41
2022-10-16T10:07:22.454Z,15.77
2022-10-16T10:09:49.450Z,15.55
2022-10-16T10:12:28.830Z,14.83
2022-10-16T10:14:58.997Z,16.00
2022-10-16T10:17:29.786Z,16.06
2022-10-16T10:20:01.958Z,16.03
2022-10-16T10:22:47.821Z,16.12
2022-10-16T10:25:14.864Z,15.10
2022-10-16T10:27:44.995Z,16.22
2022-10-16T10:30:49.395Z,16.27
2022-10-16T10:33:32.819Z,16.22
2022-10-16T10:36:14.821Z,16.38
2022-10-16T10:38:48.357Z,16.03
2022-10-16T10:41:54.057Z,16.42
2022-10-16T10:44:46.142Z,16.52
2022-10-16T10:47:48.571Z,16.58
2022-10-16T10:50:27.699Z,15.56
2022-10-16T10:53:10.509Z,16.68
2022-10-16T10:55:47.435Z,16.73
2022-10-16T10:58:36.291Z,16.78
2022-10-16T11:01:13.095Z,16.77
2022-10-16T11:04:13.173Z,16.73
2022-10-16T11:07:01.914Z,16.88
2022-10-16T11:09:37.792Z,16.90
2022-10-16T11:12:35.790Z,15.88
2022-10-16T11:15:13.772Z,16.00
2022-10-16T11:17:51.533Z,17.16
2022-10-16T11:20:24.188Z,17.26
2022-10-16T11:22:57.722Z,16.72
2022-10-16T11:25:29.151Z,16.74
2022-10-16T11:28:02.858Z,17.43
2022-10-16T11:30:34.619Z,17.49
2022-10-16T11:33:16.658Z,17.52
2022-10-16T11:36:24.962Z,17.32
2022-10-16T11:39:10.582Z,16.55
2022-10-16T11:41:37.364Z,16.59
2022-10-16T11:44:41.873Z,17.62
2022-10-16T11:47:57.568Z,17.08
2022-10-16T11:50:32.492Z,17.70
2022-10-16T11:53:32.577Z,16.66
2022-10-16T11:55:59.465Z,17.54
2022-10-16T11:58:29.847Z,17.60
2022-10-16T12:00:59.714Z,17.79
2022-10-16T12:03:58.051Z,17.82
2022-10-16T12:06:52.186Z,17.82
2022-10-16T12:09:31.504Z,17.58
2022-10-16T12:11:59.265Z,17.23
2022-10-16T12:14:57.430Z,17.86
2022-10-16T12:17:37.898Z,17.02
2022-10-16T12:20:14.965Z,17.49
2022-10-16T12:22:48.947Z,17.89
2022-10-16T12:25:47.594Z,17.91
2022-10-16T12:28:22.616Z,17.94
2022-10-16T12:30:59.167Z,16.95
2022-10-16T12:33:35.204Z,16.94
2022-10-16T12:36:06.119Z,18.01
2022-10-16T12:38:52.011Z,18.07
2022-10-16T12:41:45.261Z,18.11
2022-10-16T12:44:25.183Z,17.08
2022-10-16T12:46:52.034Z,18.11
2022-10-16T12:49:33.580Z,17.12
2022-10-16T12:52:01.429Z,17.78
2022-10-16T12:54:36.462Z,16.54
2022-10-16T12:57:28.116Z,17.01
2022-10-16T12:59:55.325Z,18.05
2022-10-16T13:02:34.455Z,18.01
2022-10-16T13:05:15.734Z,17.07
2022-10-16T13:08:12.745Z,17.98
2022-10-16T13:10:39.629Z,17.94
2022-10-16T13:13:06.562Z,17.96
2022-10-16T13:15:53.170Z,17.68
2022-10-16T13:18:32.042Z,16.94
2022-10-16T13:21:05.045Z,16.97
2022-10-16T13:23:43.912Z,17.95
2022-10-16T13:26:19.991Z,17.98
2022-10-16T13:28:47.397Z,17.60
2022-10-16T13:31:26.315Z,16.87
2022-10-16T13:33:56.850Z,17.72
2022-10-16T13:36:36.851Z,17.75
2022-10-16T13:39:18.181Z,17.08
2022-10-16T13:41:46.098Z,17.96
2022-10-16T13:44:21.808Z,17.66
2022-10-16T13:47:23.126Z,17.95
2022-10-16T13:50:15.340Z,17.95
2022-10-16T13:52:43.894Z,17.94
2022-10-16T13:55:13.600Z,17.92
2022-10-16T13:57:40.919Z,17.90
2022-10-16T14:00:31.570Z,16.73
2022-10-16T14:03:04.667Z,17.64
2022-10-16T14:05:32.217Z,17.61
2022-10-16T14:08:00.049Z,17.77
2022-10-16T14:10:31.060Z,17.75
2022-10-16T14:12:59.255Z,17.74
2022-10-16T14:15:26.701Z,17.34
2022-10-16T14:17:54.566Z,17.58
2022-10-16T14:20:28.297Z,17.69
2022-10-16T14:23:05.821Z,17.66
2022-10-16T14:25:37.449Z,17.57
2022-10-16T14:28:11.066Z,17.60
2022-10-16T14:30:38.900Z,17.47
2022-10-16T14:33:21.227Z,17.54
2022-10-16T14:36:19.821Z,17.49
2022-10-16T14:39:19.930Z,17.47
2022-10-16T14:41:51.922Z,17.35
2022-10-16T14:44:21.547Z,17.37
2022-10-16T14:46:48.927Z,17.31
2022-10-16T14:49:21.997Z,17.32
2022-10-16T14:51:49.951Z,16.82
2022-10-16T14:54:20.086Z,17.21
2022-10-16T14:56:55.760Z,17.17
2022-10-16T14:59:36.801Z,17.11
2022-10-16T15:02:18.853Z,16.82
2022-10-16T15:04:47.643Z,17.01
2022-10-16T15:07:15.084Z,16.62
2022-10-16T15:09:48.041Z,16.79
2022-10-16T15:12:17.932Z,16.86
2022-10-16T15:14:45.246Z,16.39
2022-10-16T15:17:14.616Z,16.69
2022-10-16T15:19:43.842Z,16.70
2022-10-16T15:22:13.306Z,15.80
2022-10-16T15:24:40.601Z,16.58
2022-10-16T15:27:07.750Z,16.50
2022-10-16T15:29:34.628Z,16.42
2022-10-16T15:32:02.064Z,16.10
2022-10-16T15:34:31.060Z,16.33
2022-10-16T15:36:59.464Z,15.19
2022-10-16T15:39:26.352Z,15.22
2022-10-16T15:41:54.282Z,15.53
2022-10-16T15:44:24.828Z,15.98
2022-10-16T15:46:55.630Z,15.93
2022-10-16T15:49:23.886Z,15.92
2022-10-16T15:51:53.830Z,15.86
2022-10-16T15:54:22.881Z,15.74
2022-10-16T15:56:50.361Z,14.68
2022-10-16T15:59:17.427Z,15.39
2022-10-16T16:01:44.543Z,15.39
2022-10-16T16:04:31.867Z,15.56
2022-10-16T16:06:59.131Z,15.41
2022-10-16T16:09:26.319Z,15.53
2022-10-16T16:11:53.541Z,15.47
2022-10-16T16:14:20.633Z,14.98
2022-10-16T16:16:47.926Z,14.89
2022-10-16T16:19:17.454Z,15.31
2022-10-16T16:21:46.396Z,14.71
2022-10-16T16:24:14.539Z,15.11
2022-10-16T16:26:44.404Z,14.74
2022-10-16T16:29:16.605Z,14.94
2022-10-16T16:31:44.257Z,14.72
2022-10-16T16:34:19.864Z,15.07
2022-10-16T16:36:47.912Z,14.91
2022-10-16T16:39:16.031Z,14.95
2022-10-16T16:41:46.749Z,14.29
2022-10-16T16:44:15.296Z,14.62
2022-10-16T16:46:44.648Z,13.78
2022-10-16T16:49:13.837Z,14.62
2022-10-16T16:51:41.009Z,13.76
2022-10-16T16:54:09.257Z,14.73
2022-10-16T16:56:36.538Z,14.51
2022-10-16T16:59:06.136Z,14.67
2022-10-16T17:01:33.850Z,14.49
2022-10-16T17:04:02.321Z,14.59
2022-10-16T17:06:30.692Z,14.58
2022-10-16T17:08:58.489Z,13.55
2022-10-16T17:11:28.557Z,14.51
2022-10-16T17:13:58.531Z,14.21
2022-10-16T17:16:29.993Z,14.40
2022-10-16T17:19:03.073Z,14.35
2022-10-16T17:21:34.450Z,14.33
2022-10-16T17:24:03.116Z,14.15
2022-10-16T17:26:31.549Z,14.23
2022-10-16T17:29:02.650Z,14.16
2022-10-16T17:31:34.200Z,14.19
2022-10-16T17:34:05.206Z,14.15
2022-10-16T17:36:35.882Z,14.14
2022-10-16T17:39:08.800Z,14.08
2022-10-16T17:41:37.044Z,14.05
2022-10-16T17:44:05.392Z,13.93
2022-10-16T17:46:36.827Z,13.41
2022-10-16T17:49:07.175Z,12.25
2022-10-16T17:51:34.470Z,13.17
2022-10-16T17:54:01.808Z,12.68
2022-10-16T17:56:29.819Z,13.84
2022-10-16T17:59:00.182Z,13.83
2022-10-16T18:01:33.814Z,12.60
2022-10-16T18:04:04.834Z,12.72
2022-10-16T18:06:32.805Z,13.87
2022-10-16T18:09:00.498Z,13.84
2022-10-16T18:11:28.491Z,12.91
2022-10-16T18:13:58.361Z,13.70
2022-10-16T18:16:28.677Z,12.52
2022-10-16T18:18:57.493Z,13.60
2022-10-16T18:21:29.715Z,13.53
2022-10-16T18:23:59.555Z,13.46
2022-10-16T18:26:28.120Z,13.21
2022-10-16T18:28:57.600Z,13.38
2022-10-16T18:31:29.349Z,13.35
2022-10-16T18:33:59.449Z,13.39
2022-10-16T18:36:31.009Z,13.38
2022-10-16T18:39:00.022Z,13.28
2022-10-16T18:41:28.319Z,12.60
2022-10-16T18:43:59.034Z,12.29
2022-10-16T18:46:26.417Z,12.92
2022-10-16T18:48:56.817Z,12.80
2022-10-16T18:51:30.416Z,11.93
2022-10-16T18:54:01.516Z,13.06
2022-10-16T18:56:30.484Z,12.99
2022-10-16T18:59:00.692Z,11.56
2022-10-16T19:01:31.036Z,12.30
2022-10-16T19:04:04.499Z,11.97
2022-10-16T19:06:35.933Z,12.82
2022-10-16T19:09:03.706Z,12.49
2022-10-16T19:11:31.192Z,12.68
2022-10-16T19:13:58.933Z,12.63
2022-10-16T19:16:29.512Z,11.43
2022-10-16T19:18:58.965Z,12.60
2022-10-16T19:21:27.775Z,12.58
2022-10-16T19:23:59.569Z,12.04
2022-10-16T19:26:29.557Z,11.96
2022-10-16T19:28:58.903Z,12.25
2022-10-16T19:31:28.844Z,9.90
2022-10-16T19:33:59.188Z,11.99
2022-10-16T19:36:31.982Z,11.65
2022-10-16T19:39:07.645Z,12.28
2022-10-16T19:41:36.941Z,12.29
2022-10-16T19:44:06.590Z,12.41
2022-10-16T19:46:34.446Z,11.25
2022-10-16T19:49:05.243Z,12.47
2022-10-16T19:51:32.719Z,12.44
2022-10-16T19:54:07.742Z,12.33
2022-10-16T19:56:36.113Z,12.13
2022-10-16T19:59:04.593Z,12.10
2022-10-16T20:01:33.005Z,12.22
2022-10-16T20:04:01.157Z,11.21
2022-10-16T20:06:28.669Z,12.18
2022-10-16T20:08:58.243Z,11.95
2022-10-16T20:11:28.819Z,12.18
2022-10-16T20:13:56.174Z,12.18
2022-10-16T20:16:23.390Z,10.97
2022-10-16T20:18:51.814Z,12.19
2022-10-16T20:21:22.360Z,11.00
2022-10-16T20:23:51.112Z,12.16
2022-10-16T20:26:20.518Z,11.21
2022-10-16T20:28:47.510Z,12.15
2022-10-16T20:31:19.771Z,11.49
2022-10-16T20:33:46.953Z,11.02
2022-10-16T20:36:15.181Z,12.04
2022-10-16T20:38:43.127Z,12.02
2022-10-16T20:41:10.735Z,11.18
2022-10-16T20:43:41.263Z,11.17
2022-10-16T20:46:13.327Z,10.72
2022-10-16T20:48:44.047Z,11.88
2022-10-16T20:51:33.025Z,11.55
2022-10-16T20:54:03.443Z,11.84
2022-10-16T20:56:32.577Z,11.23
2022-10-16T20:59:00.077Z,11.32
2022-10-16T21:01:29.224Z,11.69
2022-10-16T21:04:01.864Z,11.48
2022-10-16T21:06:29.466Z,11.07
2022-10-16T21:08:56.519Z,11.22
2022-10-16T21:11:27.944Z,10.48
2022-10-16T21:13:57.461Z,10.41
2022-10-16T21:16:25.073Z,11.59
2022-10-16T21:18:53.285Z,10.56
2022-10-16T21:21:26.060Z,10.43
2022-10-16T21:23:53.549Z,10.32
2022-10-16T21:26:28.222Z,10.43
2022-10-16T21:29:04.848Z,11.53
2022-10-16T21:31:32.513Z,11.50
2022-10-16T21:33:59.748Z,11.48
2022-10-16T21:36:32.294Z,10.22
2022-10-16T21:39:06.210Z,11.18
2022-10-16T21:41:34.486Z,10.45
2022-10-16T21:44:01.945Z,11.44
2022-10-16T21:46:31.671Z,11.41
2022-10-16T21:49:01.559Z,11.20
2022-10-16T21:51:31.321Z,10.39
2022-10-16T21:53:58.095Z,10.05
2022-10-16T21:56:24.928Z,10.47
2022-10-16T21:58:52.269Z,11.23
2022-10-16T22:01:23.050Z,10.68
2022-10-16T22:03:50.703Z,10.55
2022-10-16T22:08:48.458Z,10.78
2022-10-16T22:11:22.062Z,10.69
2022-10-16T22:13:56.386Z,10.77
2022-10-16T22:16:26.017Z,10.19
2022-10-16T22:18:54.806Z,9.83
2022-10-16T22:21:21.661Z,10.88
2022-10-16T22:23:48.530Z,10.50
2022-10-16T22:26:15.916Z,10.15
2022-10-16T22:28:42.912Z,10.37
2022-10-16T22:31:12.017Z,9.54
2022-10-16T22:33:39.602Z,9.33
2022-10-16T22:36:10.424Z,9.24
2022-10-16T22:38:37.877Z,9.24
2022-10-16T22:41:06.741Z,9.28
2022-10-16T22:43:38.935Z,9.74
2022-10-16T22:46:10.034Z,10.27
2022-10-16T22:48:37.434Z,9.02
2022-10-16T22:51:06.154Z,8.69
2022-10-16T22:53:33.612Z,10.02
2022-10-16T22:56:00.501Z,9.32
2022-10-16T22:58:27.603Z,10.04
2022-10-16T23:00:54.632Z,10.20
2022-10-16T23:03:21.592Z,9.93
2022-10-16T23:05:48.503Z,10.15
2022-10-16T23:08:15.761Z,9.25
2022-10-16T23:10:44.719Z,9.22
2022-10-16T23:13:12.144Z,9.56
2022-10-16T23:15:40.572Z,10.28
2022-10-16T23:18:07.863Z,10.00
2022-10-16T23:20:35.160Z,10.20
2022-10-16T23:23:02.085Z,10.11
2022-10-16T23:25:28.956Z,9.90
2022-10-16T23:27:56.120Z,8.85
2022-10-16T23:30:23.176Z,9.79
2022-10-16T23:32:50.021Z,9.45
2022-10-16T23:35:16.825Z,9.36
2022-10-16T23:37:43.836Z,8.67
2022-10-16T23:40:11.140Z,9.89
2022-10-16T23:42:37.910Z,9.61
2022-10-16T23:45:05.803Z,9.81
2022-10-16T23:47:32.566Z,9.61
2022-10-16T23:49:59.505Z,9.70
2022-10-16T23:52:26.423Z,9.66
2022-10-16T23:54:53.238Z,8.38
2022-10-16T23:57:19.988Z,9.65
2022-10-16T23:59:46.840Z,8.40
